sensor_id;sensor_type;location;lat;lon;timestamp;pressure;altitude;pressure_sealevel;temperature;humidity
61870;BME280;47810;42.264;23.826;2022-10-16T00:01:42;94514.25;;;7.65;72.62
61870;BME280;47810;42.264;23.826;2022-10-16T00:04:08;94512.59;;;7.63;72.74
61870;BME280;47810;42.264;23.826;2022-10-16T00:06:34;94517.13;;;7.59;72.64
61870;BME280;47810;42.264;23.826;2022-10-16T00:09:02;94529.22;;;7.63;72.64
61870;BME280;47810;42.264;23.826;2022-10-16T00:11:34;94515.19;;;7.64;72.52
61870;BME280;47810;42.264;23.826;2022-10-16T00:14:05;94517.59;;;7.69;72.59
61870;BME280;47810;42.264;23.826;2022-10-16T00:16:31;94517.94;;;7.61;72.12
61870;BME280;47810;42.264;23.826;2022-10-16T00:18:58;94514.38;;;7.62;71.86
61870;BME280;47810;42.264;23.826;2022-10-16T00:21:27;94520.81;;;7.55;71.85
61870;BME280;47810;42.264;23.826;2022-10-16T00:24:02;94522.53;;;7.56;72.08
61870;BME280;47810;42.264;23.826;2022-10-16T00:26:30;94524.47;;;7.51;71.84
61870;BME280;47810;42.264;23.826;2022-10-16T00:28:56;94524.28;;;7.76;71.94
61870;BME280;47810;42.264;23.826;2022-10-16T00:31:23;94515.09;;;7.66;71.58
61870;BME280;47810;42.264;23.826;2022-10-16T00:33:54;94519.63;;;7.62;71.88
61870;BME280;47810;42.264;23.826;2022-10-16T00:36:22;94527.75;;;7.77;71.06
61870;BME280;47810;42.264;23.826;2022-10-16T00:38:50;94530.69;;;7.70;71.33
61870;BME280;47810;42.264;23.826;2022-10-16T00:43:56;94528.63;;;7.57;71.44
61870;BME280;47810;42.264;23.826;2022-10-16T00:49:10;94538.66;;;7.27;72.97
61870;BME280;47810;42.264;23.826;2022-10-16T00:51:47;94540.44;;;7.26;72.91
61870;BME280;47810;42.264;23.826;2022-10-16T00:54:16;94546.69;;;7.02;73.87
61870;BME280;47810;42.264;23.826;2022-10-16T00:56:51;94545.84;;;7.01;73.69
61870;BME280;47810;42.264;23.826;2022-10-16T00:59:20;94560.97;;;7.16;73.49
61870;BME280;47810;42.264;23.826;2022-10-16T01:01:48;94559.13;;;7.18;73.58
61870;BME280;47810;42.264;23.826;2022-10-16T01:04:14;94567.81;;;7.20;73.02
61870;BME280;47810;42.264;23.826;2022-10-16T01:11:54;94564.81;;;7.30;72.42
61870;BME280;47810;42.264;23.826;2022-10-16T01:14:32;94558.13;;;7.43;72.01
61870;BME280;47810;42.264;23.826;2022-10-16T01:17:04;94552.59;;;7.49;72.04
61870;BME280;47810;42.264;23.826;2022-10-16T01:22:04;94553.63;;;7.03;72.98
61870;BME280;47810;42.264;23.826;2022-10-16T01:24:33;94552.16;;;7.17;73.08
61870;BME280;47810;42.264;23.826;2022-10-16T01:32:08;94558.53;;;6.90;74.05
61870;BME280;47810;42.264;23.826;2022-10-16T01:34:42;94559.94;;;6.98;74.17
61870;BME280;47810;42.264;23.826;2022-10-16T01:37:09;94565.16;;;7.00;73.54
61870;BME280;47810;42.264;23.826;2022-10-16T01:39:37;94564.22;;;7.01;73.64
61870;BME280;47810;42.264;23.826;2022-10-16T01:42:09;94566.13;;;6.97;73.75
61870;BME280;47810;42.264;23.826;2022-10-16T01:44:37;94555.13;;;6.88;73.82
61870;BME280;47810;42.264;23.826;2022-10-16T01:47:04;94569.16;;;6.87;73.89
61870;BME280;47810;42.264;23.826;2022-10-16T01:49:32;94569.63;;;6.96;73.53
61870;BME280;47810;42.264;23.826;2022-10-16T01:51:59;94558.78;;;7.06;73.04
61870;BME280;47810;42.264;23.826;2022-10-16T01:54:26;94560.25;;;7.13;73.18
61870;BME280;47810;42.264;23.826;2022-10-16T01:56:54;94561.81;;;7.17;73.17
61870;BME280;47810;42.264;23.826;2022-10-16T01:59:21;94563.66;;;6.93;73.54
61870;BME280;47810;42.264;23.826;2022-10-16T02:01:56;94555.00;;;6.91;74.03
61870;BME280;47810;42.264;23.826;2022-10-16T02:04:34;94563.28;;;6.58;75.21
61870;BME280;47810;42.264;23.826;2022-10-16T02:07:01;94554.50;;;6.59;74.94
61870;BME280;47810;42.264;23.826;2022-10-16T02:09:30;94556.09;;;6.63;74.70
61870;BME280;47810;42.264;23.826;2022-10-16T02:11:59;94556.31;;;6.57;74.74
61870;BME280;47810;42.264;23.826;2022-10-16T02:14:33;94556.88;;;6.65;74.64
61870;BME280;47810;42.264;23.826;2022-10-16T02:17:01;94559.03;;;6.78;74.13
61870;BME280;47810;42.264;23.826;2022-10-16T02:19:27;94554.53;;;6.81;73.94
61870;BME280;47810;42.264;23.826;2022-10-16T02:21:57;94567.81;;;6.76;74.24
61870;BME280;47810;42.264;23.826;2022-10-16T02:24:26;94573.91;;;6.77;74.22
61870;BME280;47810;42.264;23.826;2022-10-16T02:29:21;94585.16;;;6.81;74.25
61870;BME280;47810;42.264;23.826;2022-10-16T02:31:50;94580.31;;;6.70;74.00
61870;BME280;47810;42.264;23.826;2022-10-16T02:34:18;94576.97;;;6.66;74.09
61870;BME280;47810;42.264;23.826;2022-10-16T02:39:14;94586.53;;;6.67;73.83
61870;BME280;47810;42.264;23.826;2022-10-16T02:41:40;94580.81;;;6.80;73.46
61870;BME280;47810;42.264;23.826;2022-10-16T02:44:07;94585.63;;;6.68;73.05
61870;BME280;47810;42.264;23.826;2022-10-16T02:46:33;94582.66;;;6.54;73.63
61870;BME280;47810;42.264;23.826;2022-10-16T02:49:00;94590.63;;;6.52;73.79
61870;BME280;47810;42.264;23.826;2022-10-16T02:51:27;94588.09;;;6.49;73.65
61870;BME280;47810;42.264;23.826;2022-10-16T02:53:52;94593.16;;;6.54;73.46
61870;BME280;47810;42.264;23.826;2022-10-16T02:56:18;94592.59;;;6.69;73.10
61870;BME280;47810;42.264;23.826;2022-10-16T02:58:44;94587.75;;;6.59;73.29
61870;BME280;47810;42.264;23.826;2022-10-16T03:01:11;94594.13;;;6.51;73.64
61870;BME280;47810;42.264;23.826;2022-10-16T03:03:38;94588.03;;;6.51;73.81
61870;BME280;47810;42.264;23.826;2022-10-16T03:06:03;94585.88;;;6.62;73.40
61870;BME280;47810;42.264;23.826;2022-10-16T03:08:29;94587.78;;;6.57;73.82
61870;BME280;47810;42.264;23.826;2022-10-16T03:10:55;94589.13;;;6.45;74.00
61870;BME280;47810;42.264;23.826;2022-10-16T03:13:22;94595.34;;;6.43;73.94
61870;BME280;47810;42.264;23.826;2022-10-16T03:15:48;94592.94;;;6.37;74.03
61870;BME280;47810;42.264;23.826;2022-10-16T03:18:15;94602.28;;;6.44;73.81
61870;BME280;47810;42.264;23.826;2022-10-16T03:20:42;94596.94;;;6.47;73.65
61870;BME280;47810;42.264;23.826;2022-10-16T03:23:08;94595.91;;;6.51;73.86
61870;BME280;47810;42.264;23.826;2022-10-16T03:25:34;94595.34;;;6.43;73.64
61870;BME280;47810;42.264;23.826;2022-10-16T03:28:00;94593.28;;;6.51;73.37
61870;BME280;47810;42.264;23.826;2022-10-16T03:30:27;94602.19;;;6.47;73.40
61870;BME280;47810;42.264;23.826;2022-10-16T03:32:53;94600.19;;;6.30;73.39
61870;BME280;47810;42.264;23.826;2022-10-16T03:35:21;94595.00;;;6.28;73.74
61870;BME280;47810;42.264;23.826;2022-10-16T03:37:47;94608.09;;;6.28;73.32
61870;BME280;47810;42.264;23.826;2022-10-16T03:40:13;94604.59;;;6.29;73.32
61870;BME280;47810;42.264;23.826;2022-10-16T03:42:41;94604.47;;;6.33;73.09
61870;BME280;47810;42.264;23.826;2022-10-16T03:45:08;94601.03;;;6.30;73.48
61870;BME280;47810;42.264;23.826;2022-10-16T03:47:34;94607.47;;;6.22;73.38
61870;BME280;47810;42.264;23.826;2022-10-16T03:49:59;94603.06;;;6.22;73.12
61870;BME280;47810;42.264;23.826;2022-10-16T03:52:26;94599.69;;;6.20;73.72
61870;BME280;47810;42.264;23.826;2022-10-16T03:54:51;94610.38;;;6.14;73.72
61870;BME280;47810;42.264;23.826;2022-10-16T03:57:18;94605.56;;;6.02;74.16
61870;BME280;47810;42.264;23.826;2022-10-16T03:59:44;94608.69;;;6.13;73.75
61870;BME280;47810;42.264;23.826;2022-10-16T04:02:09;94605.91;;;6.16;73.89
61870;BME280;47810;42.264;23.826;2022-10-16T04:04:36;94599.47;;;6.26;73.58
61870;BME280;47810;42.264;23.826;2022-10-16T04:07:02;94611.56;;;6.05;74.22
61870;BME280;47810;42.264;23.826;2022-10-16T04:09:30;94608.13;;;6.03;74.18
61870;BME280;47810;42.264;23.826;2022-10-16T04:11:56;94604.91;;;6.20;73.94
61870;BME280;47810;42.264;23.826;2022-10-16T04:14:21;94602.56;;;6.13;73.93
61870;BME280;47810;42.264;23.826;2022-10-16T04:16:47;94606.38;;;6.04;73.93
61870;BME280;47810;42.264;23.826;2022-10-16T04:19:12;94598.63;;;6.01;74.07
61870;BME280;47810;42.264;23.826;2022-10-16T04:21:38;94602.25;;;5.97;74.32
61870;BME280;47810;42.264;23.826;2022-10-16T04:24:04;94600.72;;;5.90;74.40
61870;BME280;47810;42.264;23.826;2022-10-16T04:26:29;94598.75;;;5.98;74.35
61870;BME280;47810;42.264;23.826;2022-10-16T04:28:56;94597.28;;;6.14;75.02
61870;BME280;47810;42.264;23.826;2022-10-16T04:31:21;94607.75;;;5.89;76.36
61870;BME280;47810;42.264;23.826;2022-10-16T04:33:47;94604.19;;;5.90;75.88
61870;BME280;47810;42.264;23.826;2022-10-16T04:36:13;94602.34;;;5.94;75.84
61870;BME280;47810;42.264;23.826;2022-10-16T04:38:39;94607.16;;;6.06;75.60
61870;BME280;47810;42.264;23.826;2022-10-16T04:41:07;94602.13;;;6.00;75.05
61870;BME280;47810;42.264;23.826;2022-10-16T04:43:33;94605.78;;;5.96;74.68
61870;BME280;47810;42.264;23.826;2022-10-16T04:45:59;94611.03;;;5.96;74.48
61870;BME280;47810;42.264;23.826;2022-10-16T04:48:25;94612.00;;;5.93;74.76
61870;BME280;47810;42.264;23.826;2022-10-16T04:50:51;94609.22;;;5.98;75.21
61870;BME280;47810;42.264;23.826;2022-10-16T04:53:17;94614.88;;;5.86;75.55
61870;BME280;47810;42.264;23.826;2022-10-16T04:55:43;94618.72;;;5.75;75.48
61870;BME280;47810;42.264;23.826;2022-10-16T04:58:09;94623.94;;;5.75;76.08
61870;BME280;47810;42.264;23.826;2022-10-16T05:00:35;94632.69;;;5.74;75.54
61870;BME280;47810;42.264;23.826;2022-10-16T05:03:01;94641.78;;;5.64;75.85
61870;BME280;47810;42.264;23.826;2022-10-16T05:05:32;94644.19;;;5.70;75.47
61870;BME280;47810;42.264;23.826;2022-10-16T05:07:57;94654.81;;;5.92;75.17
61870;BME280;47810;42.264;23.826;2022-10-16T05:10:24;94658.06;;;5.74;75.25
61870;BME280;47810;42.264;23.826;2022-10-16T05:12:49;94661.94;;;5.89;75.40
61870;BME280;47810;42.264;23.826;2022-10-16T05:15:17;94663.06;;;5.81;76.01
61870;BME280;47810;42.264;23.826;2022-10-16T05:17:43;94662.97;;;5.83;76.23
61870;BME280;47810;42.264;23.826;2022-10-16T05:20:09;94664.25;;;5.71;77.06
61870;BME280;47810;42.264;23.826;2022-10-16T05:22:35;94668.69;;;5.69;76.97
61870;BME280;47810;42.264;23.826;2022-10-16T05:25:02;94664.03;;;5.77;76.31
61870;BME280;47810;42.264;23.826;2022-10-16T05:27:27;94672.78;;;5.78;77.09
61870;BME280;47810;42.264;23.826;2022-10-16T05:29:53;94663.84;;;5.83;77.25
61870;BME280;47810;42.264;23.826;2022-10-16T05:32:18;94670.59;;;5.91;77.38
61870;BME280;47810;42.264;23.826;2022-10-16T05:34:44;94668.09;;;5.88;77.14
61870;BME280;47810;42.264;23.826;2022-10-16T05:37:10;94667.03;;;5.93;76.78
61870;BME280;47810;42.264;23.826;2022-10-16T05:39:37;94674.78;;;5.96;76.42
61870;BME280;47810;42.264;23.826;2022-10-16T05:42:03;94671.03;;;6.03;76.43
61870;BME280;47810;42.264;23.826;2022-10-16T05:44:28;94684.97;;;6.05;76.10
61870;BME280;47810;42.264;23.826;2022-10-16T05:46:54;94686.19;;;6.20;76.03
61870;BME280;47810;42.264;23.826;2022-10-16T05:49:20;94680.84;;;6.23;75.92
61870;BME280;47810;42.264;23.826;2022-10-16T05:51:45;94685.78;;;6.33;76.38
61870;BME280;47810;42.264;23.826;2022-10-16T05:54:12;94696.63;;;6.47;75.87
61870;BME280;47810;42.264;23.826;2022-10-16T05:56:38;94687.59;;;6.54;75.81
61870;BME280;47810;42.264;23.826;2022-10-16T05:59:04;94694.47;;;6.58;75.68
61870;BME280;47810;42.264;23.826;2022-10-16T06:01:30;94692.59;;;6.62;75.81
61870;BME280;47810;42.264;23.826;2022-10-16T06:03:56;94686.72;;;6.79;76.26
61870;BME280;47810;42.264;23.826;2022-10-16T06:06:23;94693.66;;;6.80;75.88
61870;BME280;47810;42.264;23.826;2022-10-16T06:08:51;94689.16;;;6.83;75.21
61870;BME280;47810;42.264;23.826;2022-10-16T06:11:18;94693.31;;;6.89;75.41
61870;BME280;47810;42.264;23.826;2022-10-16T06:13:55;94695.13;;;6.87;75.81
61870;BME280;47810;42.264;23.826;2022-10-16T06:16:24;94693.22;;;6.92;76.27
61870;BME280;47810;42.264;23.826;2022-10-16T06:18:52;94695.78;;;6.93;76.30
61870;BME280;47810;42.264;23.826;2022-10-16T06:21:20;94702.66;;;7.19;76.35
61870;BME280;47810;42.264;23.826;2022-10-16T06:23:46;94696.38;;;7.23;75.77
61870;BME280;47810;42.264;23.826;2022-10-16T06:26:13;94705.09;;;7.24;75.53
61870;BME280;47810;42.264;23.826;2022-10-16T06:28:40;94709.88;;;7.36;76.14
61870;BME280;47810;42.264;23.826;2022-10-16T06:31:07;94710.00;;;7.33;76.68
61870;BME280;47810;42.264;23.826;2022-10-16T06:33:33;94712.66;;;7.32;76.42
61870;BME280;47810;42.264;23.826;2022-10-16T06:36:08;94713.31;;;7.38;77.02
61870;BME280;47810;42.264;23.826;2022-10-16T06:38:36;94721.94;;;7.42;77.01
61870;BME280;47810;42.264;23.826;2022-10-16T06:41:02;94734.56;;;7.54;76.86
61870;BME280;47810;42.264;23.826;2022-10-16T06:43:30;94727.97;;;7.44;76.70
61870;BME280;47810;42.264;23.826;2022-10-16T06:45:57;94736.09;;;7.38;77.35
61870;BME280;47810;42.264;23.826;2022-10-16T06:48:24;94721.97;;;7.40;77.05
61870;BME280;47810;42.264;23.826;2022-10-16T06:51:08;94722.09;;;7.59;76.92
61870;BME280;47810;42.264;23.826;2022-10-16T06:53:37;94724.63;;;7.62;77.07
61870;BME280;47810;42.264;23.826;2022-10-16T06:58:34;94735.16;;;7.83;76.29
61870;BME280;47810;42.264;23.826;2022-10-16T07:01:07;94731.66;;;7.84;76.43
61870;BME280;47810;42.264;23.826;2022-10-16T07:03:44;94736.91;;;7.84;76.47
61870;BME280;47810;42.264;23.826;2022-10-16T07:08:39;94746.41;;;7.86;76.31
61870;BME280;47810;42.264;23.826;2022-10-16T07:11:06;94754.94;;;7.93;76.16
61870;BME280;47810;42.264;23.826;2022-10-16T07:16:06;94758.28;;;8.19;75.80
61870;BME280;47810;42.264;23.826;2022-10-16T07:18:33;94765.47;;;8.13;75.71
61870;BME280;47810;42.264;23.826;2022-10-16T07:21:15;94765.84;;;8.26;75.73
61870;BME280;47810;42.264;23.826;2022-10-16T07:23:41;94760.44;;;8.29;75.66
61870;BME280;47810;42.264;23.826;2022-10-16T07:26:08;94761.88;;;8.38;75.01
61870;BME280;47810;42.264;23.826;2022-10-16T07:28:36;94766.44;;;8.33;75.56
61870;BME280;47810;42.264;23.826;2022-10-16T07:31:02;94763.69;;;8.56;74.57
61870;BME280;47810;42.264;23.826;2022-10-16T07:33:32;94758.50;;;8.75;74.63
61870;BME280;47810;42.264;23.826;2022-10-16T07:39:15;94759.16;;;9.39;73.23
61870;BME280;47810;42.264;23.826;2022-10-16T07:41:40;94752.16;;;9.56;72.14
61870;BME280;47810;42.264;23.826;2022-10-16T07:44:07;94752.44;;;9.69;71.40
61870;BME280;47810;42.264;23.826;2022-10-16T07:49:04;94756.25;;;10.17;69.82
61870;BME280;47810;42.264;23.826;2022-10-16T07:51:30;94754.69;;;10.49;69.48
61870;BME280;47810;42.264;23.826;2022-10-16T07:53:57;94760.53;;;10.73;68.33
61870;BME280;47810;42.264;23.826;2022-10-16T07:56:23;94757.56;;;11.13;67.74
61870;BME280;47810;42.264;23.826;2022-10-16T07:58:50;94761.97;;;11.46;66.33
61870;BME280;47810;42.264;23.826;2022-10-16T08:01:17;94765.59;;;11.76;66.36
61870;BME280;47810;42.264;23.826;2022-10-16T08:03:44;94759.16;;;12.14;64.19
61870;BME280;47810;42.264;23.826;2022-10-16T08:06:09;94761.81;;;12.44;62.56
61870;BME280;47810;42.264;23.826;2022-10-16T08:08:36;94760.00;;;12.74;62.63
61870;BME280;47810;42.264;23.826;2022-10-16T08:11:01;94754.75;;;12.89;61.20
61870;BME280;47810;42.264;23.826;2022-10-16T08:13:29;94754.78;;;13.17;60.17
61870;BME280;47810;42.264;23.826;2022-10-16T08:15:54;94753.97;;;13.31;60.16
61870;BME280;47810;42.264;23.826;2022-10-16T08:18:20;94755.19;;;13.40;59.78
61870;BME280;47810;42.264;23.826;2022-10-16T08:20:46;94749.88;;;13.68;59.11
61870;BME280;47810;42.264;23.826;2022-10-16T08:23:12;94746.06;;;13.87;58.46
61870;BME280;47810;42.264;23.826;2022-10-16T08:25:38;94751.31;;;14.28;58.00
61870;BME280;47810;42.264;23.826;2022-10-16T08:28:05;94746.16;;;14.12;57.16
61870;BME280;47810;42.264;23.826;2022-10-16T08:30:31;94749.66;;;14.40;56.54
61870;BME280;47810;42.264;23.826;2022-10-16T08:32:57;94746.50;;;14.75;55.50
61870;BME280;47810;42.264;23.826;2022-10-16T08:35:24;94747.28;;;14.89;54.08
61870;BME280;47810;42.264;23.826;2022-10-16T08:37:49;94750.28;;;15.10;54.44
61870;BME280;47810;42.264;23.826;2022-10-16T08:40:20;94745.91;;;15.35;53.88
61870;BME280;47810;42.264;23.826;2022-10-16T08:50:26;94742.09;;;16.01;52.00
61870;BME280;47810;42.264;23.826;2022-10-16T08:52:57;94736.50;;;16.17;51.32
61870;BME280;47810;42.264;23.826;2022-10-16T08:58:15;94736.06;;;16.47;49.67
61870;BME280;47810;42.264;23.826;2022-10-16T09:00:42;94734.34;;;16.46;50.28
61870;BME280;47810;42.264;23.826;2022-10-16T09:13:26;94735.78;;;17.90;48.09
61870;BME280;47810;42.264;23.826;2022-10-16T09:18:28;94730.50;;;18.22;46.61
61870;BME280;47810;42.264;23.826;2022-10-16T09:23:29;94733.72;;;18.05;44.57
61870;BME280;47810;42.264;23.826;2022-10-16T09:25:58;94731.53;;;17.76;43.89
61870;BME280;47810;42.264;23.826;2022-10-16T09:28:24;94732.47;;;17.75;44.33
61870;BME280;47810;42.264;23.826;2022-10-16T09:30:51;94727.78;;;18.01;45.09
61870;BME280;47810;42.264;23.826;2022-10-16T09:33:18;94720.84;;;18.42;44.42
61870;BME280;47810;42.264;23.826;2022-10-16T09:35:46;94720.44;;;18.58;43.01
61870;BME280;47810;42.264;23.826;2022-10-16T09:38:23;94719.94;;;18.64;42.69
61870;BME280;47810;42.264;23.826;2022-10-16T09:40:49;94717.31;;;18.85;41.90
61870;BME280;47810;42.264;23.826;2022-10-16T09:45:52;94712.69;;;19.08;42.74
61870;BME280;47810;42.264;23.826;2022-10-16T09:48:19;94709.03;;;19.09;42.44
61870;BME280;47810;42.264;23.826;2022-10-16T09:50:57;94710.44;;;19.55;41.50
61870;BME280;47810;42.264;23.826;2022-10-16T09:53:23;94708.97;;;20.12;42.27
61870;BME280;47810;42.264;23.826;2022-10-16T09:55:52;94701.69;;;20.34;39.68
61870;BME280;47810;42.264;23.826;2022-10-16T09:58:18;94705.28;;;20.63;40.07
61870;BME280;47810;42.264;23.826;2022-10-16T10:00:54;94695.78;;;20.40;39.50
61870;BME280;47810;42.264;23.826;2022-10-16T10:03:39;94702.81;;;20.41;37.77
61870;BME280;47810;42.264;23.826;2022-10-16T10:14:19;94698.66;;;20.87;37.81
61870;BME280;47810;42.264;23.826;2022-10-16T10:16:45;94694.69;;;20.91;37.72
61870;BME280;47810;42.264;23.826;2022-10-16T10:19:17;94690.97;;;21.21;37.07
61870;BME280;47810;42.264;23.826;2022-10-16T10:21:44;94694.13;;;20.97;37.54
61870;BME280;47810;42.264;23.826;2022-10-16T10:24:15;94697.19;;;21.22;36.01
61870;BME280;47810;42.264;23.826;2022-10-16T10:26:45;94686.44;;;21.31;35.48
61870;BME280;47810;42.264;23.826;2022-10-16T10:31:47;94672.75;;;21.72;34.87
61870;BME280;47810;42.264;23.826;2022-10-16T10:36:57;94667.38;;;21.72;33.72
61870;BME280;47810;42.264;23.826;2022-10-16T10:42:52;94659.88;;;22.03;32.46
61870;BME280;47810;42.264;23.826;2022-10-16T10:45:18;94661.72;;;22.02;33.68
61870;BME280;47810;42.264;23.826;2022-10-16T10:47:51;94656.72;;;22.07;34.62
61870;BME280;47810;42.264;23.826;2022-10-16T10:52:59;94653.50;;;22.49;31.93
61870;BME280;47810;42.264;23.826;2022-10-16T10:55:33;94647.06;;;22.42;32.24
61870;BME280;47810;42.264;23.826;2022-10-16T10:58:12;94643.38;;;22.61;31.73
61870;BME280;47810;42.264;23.826;2022-10-16T11:00:48;94641.69;;;22.15;30.64
61870;BME280;47810;42.264;23.826;2022-10-16T11:09:00;94639.13;;;22.59;31.38
61870;BME280;47810;42.264;23.826;2022-10-16T11:11:47;94637.75;;;22.54;32.43
61870;BME280;47810;42.264;23.826;2022-10-16T11:17:19;94630.59;;;22.81;32.82
61870;BME280;47810;42.264;23.826;2022-10-16T11:27:39;94631.88;;;23.13;30.13
61870;BME280;47810;42.264;23.826;2022-10-16T11:30:20;94635.38;;;23.31;30.43
61870;BME280;47810;42.264;23.826;2022-10-16T11:46:35;94644.34;;;22.78;30.67
61870;BME280;47810;42.264;23.826;2022-10-16T11:49:15;94637.38;;;22.67;30.37
61870;BME280;47810;42.264;23.826;2022-10-16T11:52:00;94638.19;;;23.04;30.36
61870;BME280;47810;42.264;23.826;2022-10-16T11:56:59;94639.06;;;23.30;30.01
61870;BME280;47810;42.264;23.826;2022-10-16T12:05:14;94644.88;;;23.43;30.41
61870;BME280;47810;42.264;23.826;2022-10-16T12:07:51;94641.91;;;23.55;30.36
61870;BME280;47810;42.264;23.826;2022-10-16T12:10:24;94636.25;;;23.14;30.73
61870;BME280;47810;42.264;23.826;2022-10-16T12:12:58;94639.44;;;23.35;30.89
61870;BME280;47810;42.264;23.826;2022-10-16T12:17:58;94637.78;;;23.42;30.38
61870;BME280;47810;42.264;23.826;2022-10-16T12:20:31;94636.44;;;23.12;28.99
61870;BME280;47810;42.264;23.826;2022-10-16T12:22:59;94633.03;;;23.10;30.27
61870;BME280;47810;42.264;23.826;2022-10-16T12:28:22;94638.53;;;23.27;31.74
61870;BME280;47810;42.264;23.826;2022-10-16T12:33:26;94643.75;;;22.84;32.06
61870;BME280;47810;42.264;23.826;2022-10-16T12:38:21;94650.34;;;23.08;30.31
61870;BME280;47810;42.264;23.826;2022-10-16T12:41:03;94641.59;;;23.32;30.33
61870;BME280;47810;42.264;23.826;2022-10-16T12:48:42;94646.34;;;23.12;30.79
61870;BME280;47810;42.264;23.826;2022-10-16T12:53:40;94646.03;;;23.15;29.47
61870;BME280;47810;42.264;23.826;2022-10-16T12:58:59;94646.28;;;22.32;29.60
61870;BME280;47810;42.264;23.826;2022-10-16T13:04:20;94654.44;;;22.13;31.46
61870;BME280;47810;42.264;23.826;2022-10-16T13:06:58;94647.75;;;21.89;32.74
61870;BME280;47810;42.264;23.826;2022-10-16T13:25:22;94669.81;;;20.89;33.20
61870;BME280;47810;42.264;23.826;2022-10-16T13:28:03;94666.47;;;20.58;34.19
61870;BME280;47810;42.264;23.826;2022-10-16T13:33:40;94665.88;;;20.64;35.01
61870;BME280;47810;42.264;23.826;2022-10-16T13:47:39;94667.50;;;20.07;35.05
61870;BME280;47810;42.264;23.826;2022-10-16T13:53:22;94673.66;;;19.88;35.07
61870;BME280;47810;42.264;23.826;2022-10-16T13:58:57;94674.25;;;20.01;33.63
61870;BME280;47810;42.264;23.826;2022-10-16T14:07:03;94683.03;;;19.72;34.45
61870;BME280;47810;42.264;23.826;2022-10-16T14:09:29;94681.13;;;19.63;33.89
61870;BME280;47810;42.264;23.826;2022-10-16T14:12:09;94680.81;;;19.57;33.00
61870;BME280;47810;42.264;23.826;2022-10-16T14:14:54;94681.31;;;19.41;34.30
61870;BME280;47810;42.264;23.826;2022-10-16T14:20:12;94681.88;;;18.93;32.81
61870;BME280;47810;42.264;23.826;2022-10-16T14:22:57;94682.22;;;18.67;33.04
61870;BME280;47810;42.264;23.826;2022-10-16T14:25:36;94683.19;;;17.90;36.83
61870;BME280;47810;42.264;23.826;2022-10-16T14:30:30;94692.75;;;16.68;39.88
61870;BME280;47810;42.264;23.826;2022-10-16T14:36:04;94693.16;;;15.66;41.38
61870;BME280;47810;42.264;23.826;2022-10-16T14:38:32;94695.16;;;15.25;43.21
61870;BME280;47810;42.264;23.826;2022-10-16T14:40:58;94697.72;;;15.01;43.67
61870;BME280;47810;42.264;23.826;2022-10-16T14:43:34;94699.06;;;14.68;44.00
61870;BME280;47810;42.264;23.826;2022-10-16T14:46:01;94696.38;;;14.56;44.30
61870;BME280;47810;42.264;23.826;2022-10-16T14:48:29;94695.88;;;14.36;44.14
61870;BME280;47810;42.264;23.826;2022-10-16T14:50:55;94700.19;;;14.25;43.88
61870;BME280;47810;42.264;23.826;2022-10-16T14:53:21;94703.66;;;14.12;44.91
61870;BME280;47810;42.264;23.826;2022-10-16T14:55:47;94700.47;;;14.07;44.28
61870;BME280;47810;42.264;23.826;2022-10-16T14:58:22;94709.59;;;14.03;44.86
61870;BME280;47810;42.264;23.826;2022-10-16T15:00:49;94716.50;;;14.33;43.42
61870;BME280;47810;42.264;23.826;2022-10-16T15:03:21;94719.13;;;13.79;43.86
61870;BME280;47810;42.264;23.826;2022-10-16T15:08:16;94726.91;;;13.67;44.91
61870;BME280;47810;42.264;23.826;2022-10-16T15:10:42;94717.84;;;13.57;45.97
61870;BME280;47810;42.264;23.826;2022-10-16T15:13:12;94731.09;;;13.71;43.44
61870;BME280;47810;42.264;23.826;2022-10-16T15:15:40;94718.97;;;13.67;44.74
61870;BME280;47810;42.264;23.826;2022-10-16T15:18:07;94733.22;;;13.38;45.23
61870;BME280;47810;42.264;23.826;2022-10-16T15:20:38;94723.56;;;13.37;45.56
61870;BME280;47810;42.264;23.826;2022-10-16T15:23:05;94729.81;;;13.36;43.64
61870;BME280;47810;42.264;23.826;2022-10-16T15:25:50;94733.78;;;13.28;45.43
61870;BME280;47810;42.264;23.826;2022-10-16T15:28:17;94737.72;;;13.07;43.94
61870;BME280;47810;42.264;23.826;2022-10-16T15:30:44;94748.34;;;13.07;44.35
61870;BME280;47810;42.264;23.826;2022-10-16T15:33:13;94742.84;;;13.10;45.37
61870;BME280;47810;42.264;23.826;2022-10-16T15:35:42;94755.53;;;13.05;45.18
61870;BME280;47810;42.264;23.826;2022-10-16T15:38:10;94748.66;;;12.72;45.57
61870;BME280;47810;42.264;23.826;2022-10-16T15:40:38;94744.22;;;12.87;46.48
61870;BME280;47810;42.264;23.826;2022-10-16T15:48:06;94747.94;;;12.54;45.63
61870;BME280;47810;42.264;23.826;2022-10-16T15:50:32;94745.78;;;12.31;46.03
61870;BME280;47810;42.264;23.826;2022-10-16T15:52:58;94761.97;;;12.10;46.46
61870;BME280;47810;42.264;23.826;2022-10-16T15:55:24;94759.97;;;11.82;46.93
61870;BME280;47810;42.264;23.826;2022-10-16T15:57:51;94769.38;;;11.72;46.88
61870;BME280;47810;42.264;23.826;2022-10-16T16:00:18;94763.03;;;11.75;47.70
61870;BME280;47810;42.264;23.826;2022-10-16T16:02:57;94774.31;;;11.62;47.70
61870;BME280;47810;42.264;23.826;2022-10-16T16:05:24;94778.22;;;11.71;46.82
61870;BME280;47810;42.264;23.826;2022-10-16T16:07:51;94780.88;;;11.71;47.56
61870;BME280;47810;42.264;23.826;2022-10-16T16:10:19;94792.16;;;11.59;47.96
61870;BME280;47810;42.264;23.826;2022-10-16T16:12:47;94792.44;;;11.37;48.45
61870;BME280;47810;42.264;23.826;2022-10-16T16:15:19;94790.13;;;11.31;47.62
61870;BME280;47810;42.264;23.826;2022-10-16T16:17:45;94800.31;;;11.21;47.00
61870;BME280;47810;42.264;23.826;2022-10-16T16:20:13;94797.44;;;11.26;47.41
61870;BME280;47810;42.264;23.826;2022-10-16T16:22:46;94796.00;;;11.03;47.29
61870;BME280;47810;42.264;23.826;2022-10-16T16:25:13;94798.00;;;10.98;47.21
61870;BME280;47810;42.264;23.826;2022-10-16T16:27:38;94804.88;;;11.02;47.01